createdAt,value
2022-10-26T00:01:12.205Z,100.00
2022-10-26T00:03:41.768Z,100.00
2022-10-26T00:06:12.685Z,100.00
2022-10-26T00:08:40.661Z,100.00
2022-10-26T00:11:09.829Z,100.00
2022-10-26T00:13:38.667Z,100.00
2022-10-26T00:16:24.646Z,100.00
2022-10-26T00:18:52.833Z,100.00
2022-10-26T00:21:20.385Z,100.00
2022-10-26T00:23:47.969Z,100.00
2022-10-26T00:26:15.682Z,100.00
2022-10-26T00:28:43.287Z,100.00
2022-10-26T00:31:16.057Z,100.00
2022-10-26T00:33:43.673Z,100.00
2022-10-26T00:36:13.757Z,100.00
2022-10-26T00:38:45.837Z,100.00
2022-10-26T00:41:16.327Z,100.00
2022-10-26T00:43:43.942Z,100.00
2022-10-26T00:46:26.261Z,100.00
2022-10-26T00:48:59.155Z,100.00
2022-10-26T00:51:40.424Z,100.00
2022-10-26T00:54:13.744Z,100.00
2022-10-26T00:56:42.270Z,100.00
2022-10-26T00:59:12.172Z,100.00
2022-10-26T01:01:43.262Z,100.00
2022-10-26T01:04:12.746Z,100.00
2022-10-26T01:06:42.386Z,100.00
2022-10-26T01:09:11.908Z,100.00
2022-10-26T01:11:39.446Z,100.00
2022-10-26T01:14:10.796Z,100.00
2022-10-26T01:16:48.265Z,100.00
2022-10-26T01:19:51.730Z,100.00
2022-10-26T01:22:45.429Z,100.00
2022-10-26T01:25:32.215Z,100.00
2022-10-26T01:28:04.355Z,100.00
2022-10-26T01:30:43.988Z,100.00
2022-10-26T01:33:21.112Z,100.00
2022-10-26T01:36:01.019Z,100.00
2022-10-26T01:38:58.465Z,100.00
2022-10-26T01:41:47.956Z,100.00
2022-10-26T01:44:24.650Z,100.00
2022-10-26T01:46:55.388Z,100.00
2022-10-26T01:49:28.156Z,100.00
2022-10-26T01:51:55.691Z,100.00
2022-10-26T01:54:23.236Z,100.00
2022-10-26T01:56:53.913Z,100.00
2022-10-26T01:59:36.626Z,100.00
2022-10-26T02:02:34.636Z,100.00
2022-10-26T02:05:25.417Z,100.00
2022-10-26T02:08:04.996Z,100.00
2022-10-26T02:10:51.501Z,100.00
2022-10-26T02:13:33.341Z,100.00
2022-10-26T02:16:10.803Z,100.00
2022-10-26T02:18:51.414Z,100.00
2022-10-26T02:21:31.986Z,100.00
2022-10-26T02:23:59.688Z,100.00
2022-10-26T02:26:30.425Z,100.00
2022-10-26T02:29:04.794Z,100.00
2022-10-26T02:31:35.168Z,100.00
2022-10-26T02:34:07.792Z,100.00
2022-10-26T02:36:38.846Z,100.00
2022-10-26T02:39:09.975Z,100.00
2022-10-26T02:41:40.964Z,100.00
2022-10-26T02:44:18.477Z,100.00
2022-10-26T02:46:46.492Z,100.00
2022-10-26T02:49:14.259Z,100.00
2022-10-26T02:51:50.270Z,100.00
2022-10-26T02:54:31.677Z,100.00
2022-10-26T02:57:05.945Z,100.00
2022-10-26T02:59:37.995Z,100.00
2022-10-26T03:02:05.965Z,100.00
2022-10-26T03:04:35.372Z,100.00
2022-10-26T03:07:03.370Z,100.00
2022-10-26T03:09:31.136Z,100.00
2022-10-26T03:11:58.703Z,100.00
2022-10-26T03:14:26.278Z,100.00
2022-10-26T03:16:54.025Z,100.00
2022-10-26T03:19:21.627Z,100.00
2022-10-26T03:21:49.174Z,100.00
2022-10-26T03:24:16.703Z,100.00
2022-10-26T03:26:44.388Z,100.00
2022-10-26T03:29:11.899Z,100.00
2022-10-26T03:31:39.421Z,100.00
2022-10-26T03:34:06.928Z,100.00
2022-10-26T03:36:34.494Z,100.00
2022-10-26T03:39:02.042Z,100.00
2022-10-26T03:41:29.585Z,100.00
2022-10-26T03:43:57.123Z,100.00
2022-10-26T03:46:24.691Z,100.00
2022-10-26T03:48:52.224Z,100.00
2022-10-26T03:51:19.794Z,100.00
2022-10-26T03:53:47.345Z,100.00
2022-10-26T03:56:14.879Z,100.00
2022-10-26T03:58:42.505Z,100.00
2022-10-26T04:01:10.128Z,100.00
2022-10-26T04:03:37.735Z,100.00
2022-10-26T04:06:05.606Z,100.00
2022-10-26T04:08:33.284Z,100.00
2022-10-26T04:11:03.724Z,100.00
2022-10-26T04:13:32.320Z,100.00
2022-10-26T04:16:00.194Z,100.00
2022-10-26T04:18:27.732Z,100.00
2022-10-26T04:20:55.273Z,100.00
2022-10-26T04:23:22.959Z,100.00
2022-10-26T04:25:50.637Z,100.00
2022-10-26T04:28:18.234Z,100.00
2022-10-26T04:30:47.460Z,100.00
2022-10-26T04:33:15.363Z,100.00
2022-10-26T04:35:42.957Z,100.00
2022-10-26T04:38:10.652Z,100.00
2022-10-26T04:40:38.182Z,100.00
2022-10-26T04:43:05.772Z,100.00
2022-10-26T04:45:33.504Z,100.00
2022-10-26T04:48:04.424Z,100.00
2022-10-26T04:50:32.462Z,100.00
2022-10-26T04:53:00.620Z,100.00
2022-10-26T04:55:28.175Z,100.00
2022-10-26T04:57:58.431Z,100.00
2022-10-26T05:00:33.153Z,100.00
2022-10-26T05:03:06.596Z,100.00
2022-10-26T05:05:36.598Z,100.00
2022-10-26T05:08:04.561Z,100.00
2022-10-26T05:10:32.901Z,100.00
2022-10-26T05:13:02.042Z,100.00
2022-10-26T05:15:29.645Z,100.00
2022-10-26T05:18:03.336Z,100.00
2022-10-26T05:20:33.554Z,100.00
2022-10-26T05:23:11.107Z,100.00
2022-10-26T05:25:39.095Z,100.00
2022-10-26T05:28:11.632Z,100.00
2022-10-26T05:30:40.951Z,100.00
2022-10-26T05:33:10.900Z,100.00
2022-10-26T05:35:39.263Z,100.00
2022-10-26T05:38:13.176Z,100.00
2022-10-26T05:40:48.645Z,100.00
2022-10-26T05:43:16.854Z,100.00
2022-10-26T05:45:54.241Z,100.00
2022-10-26T05:48:22.256Z,100.00
2022-10-26T05:50:50.193Z,100.00
2022-10-26T05:53:17.904Z,100.00
2022-10-26T05:55:46.104Z,100.00
2022-10-26T05:58:15.571Z,100.00
2022-10-26T06:00:49.392Z,100.00
2022-10-26T06:03:43.392Z,100.00
2022-10-26T06:06:13.585Z,100.00
2022-10-26T06:08:42.926Z,100.00
2022-10-26T06:11:12.247Z,100.00
2022-10-26T06:13:40.345Z,100.00
2022-10-26T06:16:13.969Z,100.00
2022-10-26T06:18:42.685Z,100.00
2022-10-26T06:21:42.427Z,100.00
2022-10-26T06:24:13.958Z,100.00
2022-10-26T06:26:56.428Z,100.00
2022-10-26T06:29:56.972Z,100.00
2022-10-26T06:32:25.049Z,100.00
2022-10-26T06:35:04.877Z,100.00
2022-10-26T06:37:36.438Z,100.00
2022-10-26T06:40:04.995Z,100.00
2022-10-26T06:42:33.433Z,100.00
2022-10-26T06:45:02.246Z,100.00
2022-10-26T06:48:00.474Z,100.00
2022-10-26T06:50:38.490Z,100.00
2022-10-26T06:53:18.768Z,100.00
2022-10-26T06:55:49.764Z,100.00
2022-10-26T06:58:19.706Z,100.00
2022-10-26T07:00:53.557Z,100.00
2022-10-26T07:03:21.194Z,100.00
2022-10-26T07:05:49.579Z,100.00
2022-10-26T07:08:17.446Z,100.00
2022-10-26T07:10:46.639Z,100.00
2022-10-26T07:13:15.506Z,100.00
2022-10-26T07:15:43.322Z,100.00
2022-10-26T07:18:11.949Z,100.00
2022-10-26T07:20:41.248Z,100.00
2022-10-26T07:23:12.548Z,100.00
2022-10-26T07:25:40.576Z,100.00
2022-10-26T07:28:10.511Z,100.00
2022-10-26T07:30:40.273Z,100.00
2022-10-26T07:33:13.275Z,100.00
2022-10-26T07:35:41.414Z,100.00
2022-10-26T07:38:09.468Z,100.00
2022-10-26T07:40:38.000Z,100.00
2022-10-26T07:43:05.707Z,100.00
2022-10-26T07:45:35.101Z,100.00
2022-10-26T07:48:03.368Z,100.00
2022-10-26T07:50:30.925Z,100.00
2022-10-26T07:52:59.608Z,100.00
2022-10-26T07:55:28.110Z,100.00
2022-10-26T07:57:56.500Z,100.00
2022-10-26T08:00:25.544Z,100.00
2022-10-26T08:02:54.051Z,100.00
2022-10-26T08:05:21.746Z,100.00
2022-10-26T08:07:49.685Z,100.00
2022-10-26T08:10:17.488Z,100.00
2022-10-26T08:12:46.723Z,100.00
2022-10-26T08:15:14.282Z,100.00
2022-10-26T08:17:41.857Z,100.00
2022-10-26T08:20:10.090Z,100.00
2022-10-26T08:22:37.666Z,100.00
2022-10-26T08:25:05.508Z,100.00
2022-10-26T08:27:33.061Z,100.00
2022-10-26T08:30:01.637Z,100.00
2022-10-26T08:32:30.818Z,100.00
2022-10-26T08:34:58.355Z,100.00
2022-10-26T08:37:27.286Z,100.00
2022-10-26T08:39:55.966Z,100.00
2022-10-26T08:42:38.747Z,100.00
2022-10-26T08:45:36.711Z,100.00
2022-10-26T08:48:13.628Z,100.00
2022-10-26T08:51:06.189Z,100.00
2022-10-26T08:53:41.862Z,100.00
2022-10-26T08:56:35.245Z,100.00
2022-10-26T08:59:12.084Z,100.00
2022-10-26T09:01:40.496Z,100.00
2022-10-26T09:04:13.220Z,100.00
2022-10-26T09:06:57.152Z,100.00
2022-10-26T09:09:35.911Z,100.00
2022-10-26T09:12:25.595Z,100.00
2022-10-26T09:15:08.228Z,100.00
2022-10-26T09:17:51.503Z,100.00
2022-10-26T09:20:48.329Z,100.00
2022-10-26T09:23:29.781Z,100.00
2022-10-26T09:26:04.072Z,100.00
2022-10-26T09:28:35.681Z,99.63
2022-10-26T09:31:06.193Z,99.96
2022-10-26T09:33:39.163Z,100.00
2022-10-26T09:36:13.251Z,100.00
2022-10-26T09:39:07.602Z,100.00
2022-10-26T09:41:49.966Z,100.00
2022-10-26T09:44:27.481Z,100.00
2022-10-26T09:47:00.479Z,100.00
2022-10-26T09:49:41.244Z,100.00
2022-10-26T09:54:40.082Z,100.00
2022-10-26T09:57:09.793Z,100.00
2022-10-26T09:59:41.082Z,100.00
2022-10-26T10:02:43.837Z,100.00
2022-10-26T10:05:51.180Z,100.00
2022-10-26T10:08:27.353Z,99.80
2022-10-26T10:11:05.814Z,99.88
2022-10-26T10:13:36.808Z,99.75
2022-10-26T10:16:12.440Z,99.93
2022-10-26T10:18:42.218Z,100.00
2022-10-26T10:21:11.700Z,99.73
2022-10-26T10:23:52.509Z,99.57
2022-10-26T10:26:24.843Z,99.00
2022-10-26T10:29:01.540Z,99.02
2022-10-26T10:31:33.654Z,98.92
2022-10-26T10:34:16.679Z,99.19
2022-10-26T10:36:44.635Z,98.74
2022-10-26T10:39:46.858Z,98.97
2022-10-26T10:42:20.815Z,98.98
2022-10-26T10:44:52.788Z,98.31
2022-10-26T10:47:28.412Z,98.14
2022-10-26T10:50:20.599Z,98.88
2022-10-26T10:52:48.633Z,98.66
2022-10-26T10:55:20.550Z,98.63
2022-10-26T10:58:13.981Z,99.20
2022-10-26T11:00:44.107Z,98.62
2022-10-26T11:03:30.605Z,98.75
2022-10-26T11:06:07.503Z,98.67
2022-10-26T11:08:48.970Z,99.02
2022-10-26T11:11:23.369Z,98.84
2022-10-26T11:14:05.216Z,99.05
2022-10-26T11:16:43.236Z,98.91
2022-10-26T11:19:42.900Z,98.91
2022-10-26T11:22:17.437Z,98.87
2022-10-26T11:24:50.745Z,98.98
2022-10-26T11:27:25.628Z,98.64
2022-10-26T11:30:19.859Z,99.03
2022-10-26T11:32:52.113Z,99.38
2022-10-26T11:35:31.258Z,98.93
2022-10-26T11:38:38.938Z,98.84
2022-10-26T11:41:29.221Z,98.87
2022-10-26T11:44:06.043Z,99.03
2022-10-26T11:46:44.854Z,99.11
2022-10-26T11:49:38.198Z,99.11
2022-10-26T11:52:22.557Z,98.73
2022-10-26T11:54:55.329Z,98.46
2022-10-26T11:57:24.888Z,98.60
2022-10-26T12:00:04.284Z,98.59
2022-10-26T12:02:39.789Z,98.35
2022-10-26T12:05:28.073Z,98.36
2022-10-26T12:08:18.588Z,98.33
2022-10-26T12:10:52.372Z,98.62
2022-10-26T12:13:51.965Z,98.54
2022-10-26T12:16:50.444Z,98.43
2022-10-26T12:19:40.062Z,98.63
2022-10-26T12:22:16.679Z,98.70
2022-10-26T12:24:46.622Z,98.75
2022-10-26T12:27:30.241Z,98.90
2022-10-26T12:30:20.212Z,98.86
2022-10-26T12:32:51.194Z,98.69
2022-10-26T12:35:35.322Z,98.62
2022-10-26T12:38:29.087Z,98.73
2022-10-26T12:41:03.533Z,98.78
2022-10-26T12:43:31.143Z,98.55
2022-10-26T12:46:14.660Z,98.41
2022-10-26T12:48:47.426Z,98.61
2022-10-26T12:51:27.234Z,98.55
2022-10-26T12:53:57.775Z,98.46
2022-10-26T12:56:35.698Z,98.76
2022-10-26T12:59:34.773Z,98.61
2022-10-26T13:02:36.371Z,98.86
2022-10-26T13:05:37.008Z,98.46
2022-10-26T13:08:07.873Z,98.06
2022-10-26T13:10:37.275Z,98.18
2022-10-26T13:13:07.165Z,98.11
2022-10-26T13:15:55.145Z,97.90
2022-10-26T13:18:23.468Z,97.81
2022-10-26T13:20:53.055Z,98.12
2022-10-26T13:23:29.261Z,97.67
2022-10-26T13:26:25.300Z,97.83
2022-10-26T13:28:57.046Z,97.37
2022-10-26T13:31:44.500Z,97.61
2022-10-26T13:37:00.713Z,97.55
2022-10-26T13:39:49.114Z,97.42
2022-10-26T13:42:20.323Z,97.51
2022-10-26T13:44:57.243Z,97.60
2022-10-26T13:47:46.862Z,97.31
2022-10-26T13:50:22.304Z,97.32
2022-10-26T13:53:11.182Z,97.16
2022-10-26T13:56:00.695Z,96.81
2022-10-26T13:58:31.112Z,96.84
2022-10-26T14:01:21.464Z,96.97
2022-10-26T14:03:49.832Z,96.61
2022-10-26T14:06:24.137Z,96.30
2022-10-26T14:08:54.029Z,96.51
2022-10-26T14:11:29.307Z,96.86
2022-10-26T14:13:57.254Z,96.90
2022-10-26T14:16:29.347Z,96.66
2022-10-26T14:18:57.609Z,96.54
2022-10-26T14:21:25.709Z,96.43
2022-10-26T14:24:03.428Z,96.25
2022-10-26T14:26:39.528Z,96.21
2022-10-26T14:29:24.369Z,96.28
2022-10-26T14:31:52.475Z,96.16
2022-10-26T14:34:20.900Z,96.29
2022-10-26T14:37:02.364Z,96.58
2022-10-26T14:39:47.643Z,96.52
2022-10-26T14:42:51.816Z,96.25
2022-10-26T14:45:29.532Z,96.66
2022-10-26T14:47:59.072Z,96.49
2022-10-26T14:50:31.031Z,96.41
2022-10-26T14:53:03.180Z,96.53
2022-10-26T14:55:43.478Z,96.54
2022-10-26T14:58:25.470Z,96.55
2022-10-26T15:01:14.553Z,96.89
2022-10-26T15:03:44.501Z,96.54
2022-10-26T15:06:28.018Z,96.36
2022-10-26T15:08:57.987Z,96.78
2022-10-26T15:11:26.945Z,96.74
2022-10-26T15:13:56.143Z,97.01
2022-10-26T15:16:27.783Z,96.82
2022-10-26T15:19:16.305Z,96.62
2022-10-26T15:21:48.603Z,95.91
2022-10-26T15:24:38.679Z,95.75
2022-10-26T15:27:15.834Z,96.10
2022-10-26T15:29:45.944Z,96.25
2022-10-26T15:32:31.899Z,96.05
2022-10-26T15:35:14.029Z,95.95
2022-10-26T15:37:41.825Z,96.26
2022-10-26T15:40:10.265Z,95.98
2022-10-26T15:42:40.615Z,96.09
2022-10-26T15:45:19.766Z,96.19
2022-10-26T15:47:47.524Z,96.38
2022-10-26T15:50:17.202Z,96.48
2022-10-26T15:52:48.239Z,96.39
2022-10-26T15:55:17.711Z,96.24
2022-10-26T15:57:45.405Z,96.45
2022-10-26T16:00:17.912Z,96.51
2022-10-26T16:02:46.288Z,96.63
2022-10-26T16:05:16.305Z,96.58
2022-10-26T16:07:45.786Z,96.69
2022-10-26T16:10:22.740Z,96.61
2022-10-26T16:12:51.659Z,96.71
2022-10-26T16:15:27.144Z,96.48
2022-10-26T16:17:54.981Z,96.32
2022-10-26T16:20:25.129Z,96.18
2022-10-26T16:22:53.812Z,96.32
2022-10-26T16:25:24.922Z,96.40
2022-10-26T16:27:55.034Z,96.37
2022-10-26T16:30:25.820Z,96.31
2022-10-26T16:32:55.875Z,96.32
2022-10-26T16:35:23.467Z,96.28
2022-10-26T16:37:51.041Z,96.53
2022-10-26T16:40:18.732Z,96.12
2022-10-26T16:42:46.517Z,96.05
2022-10-26T16:45:15.656Z,96.01
2022-10-26T16:47:43.423Z,95.68
2022-10-26T16:50:12.719Z,95.85
2022-10-26T16:52:40.665Z,95.72
2022-10-26T16:55:09.633Z,95.82
2022-10-26T16:57:37.918Z,95.99
2022-10-26T17:00:07.500Z,95.77
2022-10-26T17:02:35.527Z,95.66
2022-10-26T17:05:06.914Z,95.71
2022-10-26T17:07:35.694Z,95.57
2022-10-26T17:10:04.089Z,95.57
2022-10-26T17:12:32.075Z,95.34
2022-10-26T17:15:00.639Z,95.19
2022-10-26T17:17:28.481Z,94.87
2022-10-26T17:19:56.378Z,94.70
2022-10-26T17:22:23.995Z,94.66
2022-10-26T17:24:51.501Z,94.84
2022-10-26T17:27:20.312Z,95.13
2022-10-26T17:29:47.836Z,95.09
2022-10-26T17:32:16.459Z,94.84
2022-10-26T17:34:44.067Z,94.62
2022-10-26T17:37:11.592Z,94.74
2022-10-26T17:39:39.119Z,94.92
2022-10-26T17:42:06.739Z,94.77
2022-10-26T17:44:38.863Z,94.79
2022-10-26T17:47:06.431Z,95.03
2022-10-26T17:49:36.294Z,95.08
2022-10-26T17:52:05.997Z,95.34
2022-10-26T17:54:33.580Z,95.11
2022-10-26T17:57:01.164Z,95.25
2022-10-26T17:59:29.073Z,95.11
2022-10-26T18:01:56.835Z,95.10
2022-10-26T18:04:24.486Z,94.79
2022-10-26T18:06:52.017Z,94.84
2022-10-26T18:09:19.687Z,94.68
2022-10-26T18:11:48.703Z,94.73
2022-10-26T18:14:18.549Z,94.67
2022-10-26T18:16:46.053Z,94.51
2022-10-26T18:19:13.567Z,94.50
2022-10-26T18:21:41.172Z,94.40
2022-10-26T18:24:09.552Z,94.52
2022-10-26T18:26:37.577Z,94.67
2022-10-26T18:29:06.044Z,94.67
2022-10-26T18:31:37.483Z,94.59
2022-10-26T18:34:06.564Z,94.72
2022-10-26T18:36:34.425Z,94.73
2022-10-26T18:39:02.223Z,95.17
2022-10-26T18:41:29.970Z,95.09
2022-10-26T18:43:59.452Z,94.98
2022-10-26T18:46:30.082Z,95.06
2022-10-26T18:49:00.564Z,95.31
2022-10-26T18:51:33.059Z,95.37
2022-10-26T18:54:01.007Z,95.28
2022-10-26T18:56:28.897Z,95.41
2022-10-26T18:58:58.792Z,95.39
2022-10-26T19:01:29.554Z,95.19
2022-10-26T19:04:02.508Z,95.15
2022-10-26T19:06:33.375Z,95.25
2022-10-26T19:09:02.096Z,95.27
2022-10-26T19:11:30.710Z,95.60
2022-10-26T19:13:58.811Z,95.41
2022-10-26T19:16:46.347Z,95.56
2022-10-26T19:19:17.258Z,95.84
2022-10-26T19:21:47.441Z,96.04
2022-10-26T19:24:20.772Z,95.92
2022-10-26T19:26:50.268Z,95.91
2022-10-26T19:29:19.250Z,95.87
2022-10-26T19:31:50.067Z,95.79
2022-10-26T19:34:17.819Z,96.02
2022-10-26T19:36:46.762Z,96.13
2022-10-26T19:39:16.173Z,96.14
2022-10-26T19:41:45.724Z,96.19
2022-10-26T19:44:14.746Z,96.07
2022-10-26T19:46:43.552Z,96.51
2022-10-26T19:49:12.814Z,96.32
2022-10-26T19:51:41.046Z,96.29
2022-10-26T19:54:08.863Z,96.30
2022-10-26T19:56:37.248Z,95.99
2022-10-26T19:59:06.552Z,95.89
2022-10-26T20:01:34.787Z,96.13
2022-10-26T20:04:03.293Z,96.10
2022-10-26T20:06:31.210Z,96.10
2022-10-26T20:08:59.944Z,96.09
2022-10-26T20:11:28.085Z,95.88
2022-10-26T20:13:56.335Z,96.26
2022-10-26T20:16:25.084Z,96.35
2022-10-26T20:18:52.717Z,96.34
2022-10-26T20:21:20.572Z,95.96
2022-10-26T20:23:48.140Z,95.80
2022-10-26T20:26:19.277Z,96.28
2022-10-26T20:28:52.382Z,96.25
2022-10-26T20:31:20.101Z,96.49
2022-10-26T20:33:55.321Z,96.46
2022-10-26T20:36:23.073Z,96.40
2022-10-26T20:38:51.708Z,96.34
2022-10-26T20:41:19.784Z,96.00
2022-10-26T20:43:47.624Z,95.83
2022-10-26T20:46:23.898Z,95.82
2022-10-26T20:48:52.828Z,95.47
2022-10-26T20:51:33.961Z,95.43
2022-10-26T20:54:11.860Z,95.56
2022-10-26T20:56:42.020Z,95.46
2022-10-26T20:59:35.975Z,95.73
2022-10-26T21:02:04.471Z,95.75
2022-10-26T21:04:32.165Z,95.91
2022-10-26T21:06:59.743Z,95.79
2022-10-26T21:09:27.685Z,95.88
2022-10-26T21:11:58.295Z,96.24
2022-10-26T21:14:28.239Z,96.30
2022-10-26T21:16:55.764Z,96.47
2022-10-26T21:19:23.375Z,96.45
2022-10-26T21:21:50.898Z,96.05
2022-10-26T21:24:18.763Z,96.16
2022-10-26T21:26:46.271Z,96.72
2022-10-26T21:29:14.336Z,96.37
2022-10-26T21:31:41.871Z,96.10
2022-10-26T21:34:09.497Z,96.30
2022-10-26T21:36:37.106Z,96.24
2022-10-26T21:39:04.997Z,96.28
2022-10-26T21:41:37.310Z,96.33
2022-10-26T21:44:09.274Z,96.47
2022-10-26T21:46:43.246Z,96.60
2022-10-26T21:49:10.763Z,96.54
2022-10-26T21:51:38.397Z,96.70
2022-10-26T21:54:05.980Z,97.18
2022-10-26T21:56:33.513Z,97.10
2022-10-26T21:59:01.708Z,96.93
2022-10-26T22:01:29.458Z,96.93
2022-10-26T22:03:57.418Z,97.10
2022-10-26T22:06:25.332Z,96.90
2022-10-26T22:08:53.367Z,96.61
2022-10-26T22:11:23.622Z,96.62
2022-10-26T22:13:52.199Z,96.57
2022-10-26T22:16:26.005Z,96.93
2022-10-26T22:18:54.790Z,97.06
2022-10-26T22:21:25.212Z,97.08
2022-10-26T22:23:53.870Z,97.11
2022-10-26T22:26:25.195Z,97.43
2022-10-26T22:28:55.492Z,97.46
2022-10-26T22:31:26.609Z,97.09
2022-10-26T22:33:56.445Z,97.06
2022-10-26T22:36:25.338Z,97.24
2022-10-26T22:38:53.732Z,97.18
2022-10-26T22:41:23.233Z,97.05
2022-10-26T22:43:51.590Z,97.30
2022-10-26T22:46:22.569Z,97.53
2022-10-26T22:49:00.231Z,97.78
2022-10-26T22:51:31.439Z,97.70
2022-10-26T22:54:01.656Z,97.79
2022-10-26T22:56:30.723Z,97.76
2022-10-26T22:58:59.206Z,97.60
2022-10-26T23:01:31.430Z,97.75
2022-10-26T23:04:00.374Z,97.60
2022-10-26T23:06:31.224Z,97.47
2022-10-26T23:08:59.231Z,97.86
2022-10-26T23:11:28.881Z,97.53
2022-10-26T23:13:59.323Z,97.34
2022-10-26T23:16:28.387Z,97.84
2022-10-26T23:18:56.601Z,97.85
2022-10-26T23:23:53.386Z,97.67
2022-10-26T23:26:21.828Z,97.94
2022-10-26T23:28:50.440Z,97.74
2022-10-26T23:31:24.016Z,97.96
2022-10-26T23:33:53.324Z,97.99
2022-10-26T23:36:21.683Z,97.78
2022-10-26T23:38:49.494Z,97.59
2022-10-26T23:41:17.336Z,97.54
2022-10-26T23:43:45.122Z,97.52
2022-10-26T23:46:13.136Z,97.74
2022-10-26T23:48:40.921Z,97.91
2022-10-26T23:51:08.795Z,98.05
2022-10-26T23:53:36.664Z,98.33
2022-10-26T23:56:04.884Z,98.56
2022-10-26T23:58:32.570Z,98.25
